sensor_id;sensor_type;location;lat;lon;timestamp;P1;durP1;ratioP1;P2;durP2;ratioP2
6987;SDS011;3534;49.960;8.018;2024-01-15T00:00:09;20.00;;;9.20;;
6987;SDS011;3534;49.960;8.018;2024-01-15T00:02:38;22.70;;;9.87;;
6987;SDS011;3534;49.960;8.018;2024-01-15T00:05:04;25.87;;;10.90;;
6987;SDS011;3534;49.960;8.018;2024-01-15T00:07:31;21.17;;;10.67;;
6987;SDS011;3534;49.960;8.018;2024-01-15T00:09:58;26.50;;;10.03;;
6987;SDS011;3534;49.960;8.018;2024-01-15T00:12:25;21.30;;;11.17;;
6987;SDS011;3534;49.960;8.018;2024-01-15T00:14:51;31.30;;;11.20;;
6987;SDS011;3534;49.960;8.018;2024-01-15T00:17:18;25.87;;;10.73;;
6987;SDS011;3534;49.960;8.018;2024-01-15T00:19:46;26.67;;;9.37;;
6987;SDS011;3534;49.960;8.018;2024-01-15T00:22:13;34.60;;;11.97;;
6987;SDS011;3534;49.960;8.018;2024-01-15T00:24:39;22.37;;;9.70;;
6987;SDS011;3534;49.960;8.018;2024-01-15T00:27:06;27.30;;;11.27;;
6987;SDS011;3534;49.960;8.018;2024-01-15T00:29:33;25.37;;;11.73;;
6987;SDS011;3534;49.960;8.018;2024-01-15T00:31:59;31.17;;;11.87;;
6987;SDS011;3534;49.960;8.018;2024-01-15T00:34:26;34.43;;;10.13;;
6987;SDS011;3534;49.960;8.018;2024-01-15T00:36:54;29.90;;;11.80;;
6987;SDS011;3534;49.960;8.018;2024-01-15T00:39:21;24.63;;;10.60;;
6987;SDS011;3534;49.960;8.018;2024-01-15T00:41:47;20.90;;;10.53;;
6987;SDS011;3534;49.960;8.018;2024-01-15T00:44:14;25.57;;;10.73;;
6987;SDS011;3534;49.960;8.018;2024-01-15T00:46:42;32.27;;;10.37;;
6987;SDS011;3534;49.960;8.018;2024-01-15T00:49:10;27.30;;;11.50;;
6987;SDS011;3534;49.960;8.018;2024-01-15T00:51:38;25.50;;;10.10;;
6987;SDS011;3534;49.960;8.018;2024-01-15T00:54:06;23.10;;;9.83;;
6987;SDS011;3534;49.960;8.018;2024-01-15T00:56:33;27.33;;;9.37;;
6987;SDS011;3534;49.960;8.018;2024-01-15T00:59:00;28.80;;;9.67;;
6987;SDS011;3534;49.960;8.018;2024-01-15T01:01:27;29.13;;;10.10;;
6987;SDS011;3534;49.960;8.018;2024-01-15T01:03:54;32.30;;;10.43;;
6987;SDS011;3534;49.960;8.018;2024-01-15T01:06:20;25.57;;;9.90;;
6987;SDS011;3534;49.960;8.018;2024-01-15T01:08:47;23.63;;;9.60;;
6987;SDS011;3534;49.960;8.018;2024-01-15T01:11:14;36.90;;;12.37;;
6987;SDS011;3534;49.960;8.018;2024-01-15T01:13:41;19.47;;;7.90;;
6987;SDS011;3534;49.960;8.018;2024-01-15T01:16:08;31.07;;;9.90;;
6987;SDS011;3534;49.960;8.018;2024-01-15T01:18:34;27.10;;;10.23;;
6987;SDS011;3534;49.960;8.018;2024-01-15T01:21:01;25.03;;;8.73;;
6987;SDS011;3534;49.960;8.018;2024-01-15T01:23:28;27.47;;;11.00;;
6987;SDS011;3534;49.960;8.018;2024-01-15T01:25:55;23.43;;;10.00;;
6987;SDS011;3534;49.960;8.018;2024-01-15T01:28:23;27.40;;;8.63;;
6987;SDS011;3534;49.960;8.018;2024-01-15T01:30:50;22.10;;;10.20;;
6987;SDS011;3534;49.960;8.018;2024-01-15T01:33:16;23.20;;;9.10;;
6987;SDS011;3534;49.960;8.018;2024-01-15T01:35:43;25.13;;;9.60;;
6987;SDS011;3534;49.960;8.018;2024-01-15T01:38:10;25.93;;;9.10;;
6987;SDS011;3534;49.960;8.018;2024-01-15T01:40:36;25.30;;;10.40;;
6987;SDS011;3534;49.960;8.018;2024-01-15T01:43:04;19.67;;;9.50;;
6987;SDS011;3534;49.960;8.018;2024-01-15T01:45:32;21.00;;;9.90;;
6987;SDS011;3534;49.960;8.018;2024-01-15T01:47:59;25.43;;;10.20;;
6987;SDS011;3534;49.960;8.018;2024-01-15T01:50:26;24.63;;;10.07;;
6987;SDS011;3534;49.960;8.018;2024-01-15T01:52:53;21.53;;;8.93;;
6987;SDS011;3534;49.960;8.018;2024-01-15T01:55:20;29.07;;;10.10;;
6987;SDS011;3534;49.960;8.018;2024-01-15T01:57:50;24.83;;;10.47;;
6987;SDS011;3534;49.960;8.018;2024-01-15T02:00:17;28.83;;;10.30;;
6987;SDS011;3534;49.960;8.018;2024-01-15T02:02:45;27.10;;;10.67;;
6987;SDS011;3534;49.960;8.018;2024-01-15T02:05:12;24.40;;;9.17;;
6987;SDS011;3534;49.960;8.018;2024-01-15T02:07:44;24.13;;;9.67;;
6987;SDS011;3534;49.960;8.018;2024-01-15T02:10:11;20.63;;;9.13;;
6987;SDS011;3534;49.960;8.018;2024-01-15T02:12:38;24.30;;;9.40;;
6987;SDS011;3534;49.960;8.018;2024-01-15T02:15:05;26.90;;;9.93;;
6987;SDS011;3534;49.960;8.018;2024-01-15T02:17:32;24.50;;;9.43;;
6987;SDS011;3534;49.960;8.018;2024-01-15T02:20:00;22.40;;;8.50;;
6987;SDS011;3534;49.960;8.018;2024-01-15T02:22:27;24.30;;;8.87;;
6987;SDS011;3534;49.960;8.018;2024-01-15T02:24:55;20.00;;;8.93;;
6987;SDS011;3534;49.960;8.018;2024-01-15T02:27:22;17.63;;;9.07;;
6987;SDS011;3534;49.960;8.018;2024-01-15T02:29:48;19.27;;;9.00;;
6987;SDS011;3534;49.960;8.018;2024-01-15T02:32:15;23.47;;;9.33;;
6987;SDS011;3534;49.960;8.018;2024-01-15T02:34:42;24.37;;;10.50;;
6987;SDS011;3534;49.960;8.018;2024-01-15T02:37:09;19.03;;;9.17;;
6987;SDS011;3534;49.960;8.018;2024-01-15T02:39:36;18.90;;;9.43;;
6987;SDS011;3534;49.960;8.018;2024-01-15T02:42:04;24.87;;;9.87;;
6987;SDS011;3534;49.960;8.018;2024-01-15T02:44:31;17.90;;;8.40;;
6987;SDS011;3534;49.960;8.018;2024-01-15T02:46:58;23.10;;;8.97;;
6987;SDS011;3534;49.960;8.018;2024-01-15T02:49:24;21.40;;;9.33;;
6987;SDS011;3534;49.960;8.018;2024-01-15T02:51:51;17.90;;;7.93;;
6987;SDS011;3534;49.960;8.018;2024-01-15T02:54:18;22.67;;;8.90;;
6987;SDS011;3534;49.960;8.018;2024-01-15T02:56:44;22.57;;;8.50;;
6987;SDS011;3534;49.960;8.018;2024-01-15T02:59:12;22.93;;;8.57;;
6987;SDS011;3534;49.960;8.018;2024-01-15T03:01:39;22.33;;;10.00;;
6987;SDS011;3534;49.960;8.018;2024-01-15T03:04:06;18.90;;;8.43;;
6987;SDS011;3534;49.960;8.018;2024-01-15T03:06:32;20.00;;;7.90;;
6987;SDS011;3534;49.960;8.018;2024-01-15T03:08:59;20.10;;;8.10;;
6987;SDS011;3534;49.960;8.018;2024-01-15T03:11:26;22.93;;;9.87;;
6987;SDS011;3534;49.960;8.018;2024-01-15T03:13:52;18.30;;;8.80;;
6987;SDS011;3534;49.960;8.018;2024-01-15T03:16:20;24.53;;;10.00;;
6987;SDS011;3534;49.960;8.018;2024-01-15T03:18:47;27.60;;;8.20;;
6987;SDS011;3534;49.960;8.018;2024-01-15T03:21:14;21.27;;;8.73;;
6987;SDS011;3534;49.960;8.018;2024-01-15T03:23:40;25.37;;;8.50;;
6987;SDS011;3534;49.960;8.018;2024-01-15T03:26:07;21.97;;;8.53;;
6987;SDS011;3534;49.960;8.018;2024-01-15T03:28:33;19.10;;;9.23;;
6987;SDS011;3534;49.960;8.018;2024-01-15T03:31:00;31.13;;;8.90;;
6987;SDS011;3534;49.960;8.018;2024-01-15T03:33:28;17.23;;;7.70;;
6987;SDS011;3534;49.960;8.018;2024-01-15T03:35:55;21.80;;;9.97;;
6987;SDS011;3534;49.960;8.018;2024-01-15T03:38:22;21.97;;;9.63;;
6987;SDS011;3534;49.960;8.018;2024-01-15T03:40:49;23.57;;;9.20;;
6987;SDS011;3534;49.960;8.018;2024-01-15T03:43:16;20.23;;;8.27;;
6987;SDS011;3534;49.960;8.018;2024-01-15T03:45:42;20.17;;;9.37;;
6987;SDS011;3534;49.960;8.018;2024-01-15T03:48:09;22.33;;;8.27;;
6987;SDS011;3534;49.960;8.018;2024-01-15T03:50:37;27.57;;;9.47;;
6987;SDS011;3534;49.960;8.018;2024-01-15T03:53:04;24.30;;;9.60;;
6987;SDS011;3534;49.960;8.018;2024-01-15T03:55:32;24.13;;;10.00;;
6987;SDS011;3534;49.960;8.018;2024-01-15T03:57:58;20.93;;;8.20;;
6987;SDS011;3534;49.960;8.018;2024-01-15T04:00:25;19.10;;;8.43;;
6987;SDS011;3534;49.960;8.018;2024-01-15T04:02:52;19.77;;;8.10;;
6987;SDS011;3534;49.960;8.018;2024-01-15T04:05:19;21.53;;;8.40;;
6987;SDS011;3534;49.960;8.018;2024-01-15T04:07:47;21.23;;;8.70;;
6987;SDS011;3534;49.960;8.018;2024-01-15T04:10:13;23.70;;;10.30;;
6987;SDS011;3534;49.960;8.018;2024-01-15T04:12:40;21.70;;;8.50;;
6987;SDS011;3534;49.960;8.018;2024-01-15T04:15:07;22.53;;;8.53;;
6987;SDS011;3534;49.960;8.018;2024-01-15T04:17:34;19.80;;;8.20;;
6987;SDS011;3534;49.960;8.018;2024-01-15T04:20:01;18.17;;;8.43;;
6987;SDS011;3534;49.960;8.018;2024-01-15T04:22:28;16.20;;;8.03;;
6987;SDS011;3534;49.960;8.018;2024-01-15T04:24:56;22.50;;;7.77;;
6987;SDS011;3534;49.960;8.018;2024-01-15T04:27:23;16.53;;;8.23;;
6987;SDS011;3534;49.960;8.018;2024-01-15T04:29:49;20.37;;;8.53;;
6987;SDS011;3534;49.960;8.018;2024-01-15T04:32:16;21.70;;;8.90;;
6987;SDS011;3534;49.960;8.018;2024-01-15T04:34:43;19.83;;;7.93;;
6987;SDS011;3534;49.960;8.018;2024-01-15T04:37:09;19.37;;;8.33;;
6987;SDS011;3534;49.960;8.018;2024-01-15T04:39:36;20.80;;;7.87;;
6987;SDS011;3534;49.960;8.018;2024-01-15T04:42:04;21.50;;;9.00;;
6987;SDS011;3534;49.960;8.018;2024-01-15T04:44:31;19.90;;;8.60;;
6987;SDS011;3534;49.960;8.018;2024-01-15T04:46:57;21.83;;;9.43;;
6987;SDS011;3534;49.960;8.018;2024-01-15T04:49:24;17.40;;;8.27;;
6987;SDS011;3534;49.960;8.018;2024-01-15T04:51:52;21.10;;;9.57;;
6987;SDS011;3534;49.960;8.018;2024-01-15T04:54:19;23.37;;;9.40;;
6987;SDS011;3534;49.960;8.018;2024-01-15T04:56:45;18.63;;;8.80;;
6987;SDS011;3534;49.960;8.018;2024-01-15T04:59:14;20.47;;;9.00;;
6987;SDS011;3534;49.960;8.018;2024-01-15T05:01:40;28.63;;;9.40;;
6987;SDS011;3534;49.960;8.018;2024-01-15T05:04:07;18.70;;;8.50;;
6987;SDS011;3534;49.960;8.018;2024-01-15T05:06:33;21.17;;;8.30;;
6987;SDS011;3534;49.960;8.018;2024-01-15T05:09:00;19.37;;;9.30;;
6987;SDS011;3534;49.960;8.018;2024-01-15T05:11:27;19.03;;;9.37;;
6987;SDS011;3534;49.960;8.018;2024-01-15T05:13:53;19.27;;;9.40;;
6987;SDS011;3534;49.960;8.018;2024-01-15T05:16:21;25.33;;;9.60;;
6987;SDS011;3534;49.960;8.018;2024-01-15T05:18:48;24.63;;;9.30;;
6987;SDS011;3534;49.960;8.018;2024-01-15T05:21:15;25.03;;;10.80;;
6987;SDS011;3534;49.960;8.018;2024-01-15T05:23:42;19.40;;;9.10;;
6987;SDS011;3534;49.960;8.018;2024-01-15T05:26:08;22.60;;;10.37;;
6987;SDS011;3534;49.960;8.018;2024-01-15T05:28:35;30.43;;;11.47;;
6987;SDS011;3534;49.960;8.018;2024-01-15T05:31:02;21.40;;;9.50;;
6987;SDS011;3534;49.960;8.018;2024-01-15T05:33:30;27.37;;;10.27;;
6987;SDS011;3534;49.960;8.018;2024-01-15T05:35:57;29.30;;;10.30;;
6987;SDS011;3534;49.960;8.018;2024-01-15T05:38:24;26.50;;;10.20;;
6987;SDS011;3534;49.960;8.018;2024-01-15T05:40:51;24.60;;;11.67;;
6987;SDS011;3534;49.960;8.018;2024-01-15T05:43:17;25.33;;;10.20;;
6987;SDS011;3534;49.960;8.018;2024-01-15T05:45:44;22.60;;;9.10;;
6987;SDS011;3534;49.960;8.018;2024-01-15T05:48:11;22.87;;;9.83;;
6987;SDS011;3534;49.960;8.018;2024-01-15T05:50:41;21.37;;;9.10;;
6987;SDS011;3534;49.960;8.018;2024-01-15T05:53:08;21.37;;;9.33;;
6987;SDS011;3534;49.960;8.018;2024-01-15T05:55:35;25.70;;;10.17;;
6987;SDS011;3534;49.960;8.018;2024-01-15T05:58:02;25.93;;;10.30;;
6987;SDS011;3534;49.960;8.018;2024-01-15T06:00:29;23.00;;;8.50;;
6987;SDS011;3534;49.960;8.018;2024-01-15T06:02:57;15.87;;;8.60;;
6987;SDS011;3534;49.960;8.018;2024-01-15T06:05:24;17.73;;;7.67;;
6987;SDS011;3534;49.960;8.018;2024-01-15T06:07:52;19.10;;;9.53;;
6987;SDS011;3534;49.960;8.018;2024-01-15T06:10:20;26.40;;;9.30;;
6987;SDS011;3534;49.960;8.018;2024-01-15T06:12:46;21.93;;;9.17;;
6987;SDS011;3534;49.960;8.018;2024-01-15T06:15:13;16.50;;;8.10;;
6987;SDS011;3534;49.960;8.018;2024-01-15T06:17:40;27.07;;;10.67;;
6987;SDS011;3534;49.960;8.018;2024-01-15T06:20:07;25.23;;;9.73;;
6987;SDS011;3534;49.960;8.018;2024-01-15T06:22:35;27.50;;;9.80;;
6987;SDS011;3534;49.960;8.018;2024-01-15T06:25:05;25.23;;;11.07;;
6987;SDS011;3534;49.960;8.018;2024-01-15T06:27:33;19.17;;;9.20;;
6987;SDS011;3534;49.960;8.018;2024-01-15T06:29:59;24.07;;;10.47;;
6987;SDS011;3534;49.960;8.018;2024-01-15T06:32:26;19.57;;;9.90;;
6987;SDS011;3534;49.960;8.018;2024-01-15T06:34:53;23.13;;;9.10;;
6987;SDS011;3534;49.960;8.018;2024-01-15T06:37:20;29.17;;;10.30;;
6987;SDS011;3534;49.960;8.018;2024-01-15T06:39:47;22.47;;;10.97;;
6987;SDS011;3534;49.960;8.018;2024-01-15T06:42:15;25.87;;;10.57;;
6987;SDS011;3534;49.960;8.018;2024-01-15T06:44:42;22.33;;;9.07;;
6987;SDS011;3534;49.960;8.018;2024-01-15T06:47:08;24.50;;;10.87;;
6987;SDS011;3534;49.960;8.018;2024-01-15T06:49:35;25.30;;;10.20;;
6987;SDS011;3534;49.960;8.018;2024-01-15T06:52:02;20.93;;;9.00;;
6987;SDS011;3534;49.960;8.018;2024-01-15T06:54:29;24.50;;;10.87;;
6987;SDS011;3534;49.960;8.018;2024-01-15T06:56:56;31.00;;;12.40;;
6987;SDS011;3534;49.960;8.018;2024-01-15T06:59:24;21.47;;;9.60;;
6987;SDS011;3534;49.960;8.018;2024-01-15T07:01:50;34.87;;;11.67;;
6987;SDS011;3534;49.960;8.018;2024-01-15T07:04:17;24.93;;;10.83;;
6987;SDS011;3534;49.960;8.018;2024-01-15T07:06:44;23.70;;;9.13;;
6987;SDS011;3534;49.960;8.018;2024-01-15T07:09:10;23.73;;;10.53;;
6987;SDS011;3534;49.960;8.018;2024-01-15T07:11:37;23.10;;;9.73;;
6987;SDS011;3534;49.960;8.018;2024-01-15T07:14:04;22.27;;;10.03;;
6987;SDS011;3534;49.960;8.018;2024-01-15T07:16:32;25.03;;;11.07;;
6987;SDS011;3534;49.960;8.018;2024-01-15T07:18:58;23.90;;;10.53;;
6987;SDS011;3534;49.960;8.018;2024-01-15T07:21:25;29.90;;;13.30;;
6987;SDS011;3534;49.960;8.018;2024-01-15T07:23:52;22.67;;;10.30;;
6987;SDS011;3534;49.960;8.018;2024-01-15T07:26:18;25.30;;;9.83;;
6987;SDS011;3534;49.960;8.018;2024-01-15T07:28:45;24.40;;;10.50;;
6987;SDS011;3534;49.960;8.018;2024-01-15T07:31:11;26.00;;;11.67;;
6987;SDS011;3534;49.960;8.018;2024-01-15T07:33:40;24.80;;;10.67;;
6987;SDS011;3534;49.960;8.018;2024-01-15T07:36:06;21.67;;;10.03;;
6987;SDS011;3534;49.960;8.018;2024-01-15T07:38:33;22.67;;;11.60;;
6987;SDS011;3534;49.960;8.018;2024-01-15T07:41:00;25.80;;;10.13;;
6987;SDS011;3534;49.960;8.018;2024-01-15T07:43:27;26.30;;;11.83;;
6987;SDS011;3534;49.960;8.018;2024-01-15T07:45:54;29.43;;;11.40;;
6987;SDS011;3534;49.960;8.018;2024-01-15T07:48:20;22.63;;;11.10;;
6987;SDS011;3534;49.960;8.018;2024-01-15T07:50:48;26.47;;;10.83;;
6987;SDS011;3534;49.960;8.018;2024-01-15T07:53:15;25.27;;;10.30;;
6987;SDS011;3534;49.960;8.018;2024-01-15T07:55:42;21.10;;;10.30;;
6987;SDS011;3534;49.960;8.018;2024-01-15T07:58:11;21.40;;;9.87;;
6987;SDS011;3534;49.960;8.018;2024-01-15T08:00:37;20.20;;;10.70;;
6987;SDS011;3534;49.960;8.018;2024-01-15T08:03:04;21.93;;;9.40;;
6987;SDS011;3534;49.960;8.018;2024-01-15T08:05:31;24.20;;;10.70;;
6987;SDS011;3534;49.960;8.018;2024-01-15T08:07:59;23.70;;;10.60;;
6987;SDS011;3534;49.960;8.018;2024-01-15T08:10:26;17.77;;;10.13;;
6987;SDS011;3534;49.960;8.018;2024-01-15T08:15:21;19.00;;;9.90;;
6987;SDS011;3534;49.960;8.018;2024-01-15T08:17:48;23.47;;;9.77;;
6987;SDS011;3534;49.960;8.018;2024-01-15T08:20:15;23.33;;;10.40;;
6987;SDS011;3534;49.960;8.018;2024-01-15T08:22:42;21.40;;;9.20;;
6987;SDS011;3534;49.960;8.018;2024-01-15T08:25:10;22.80;;;9.70;;
6987;SDS011;3534;49.960;8.018;2024-01-15T08:27:38;21.47;;;10.00;;
6987;SDS011;3534;49.960;8.018;2024-01-15T08:30:05;20.43;;;10.37;;
6987;SDS011;3534;49.960;8.018;2024-01-15T08:32:32;22.93;;;10.40;;
6987;SDS011;3534;49.960;8.018;2024-01-15T08:35:01;24.07;;;11.17;;
6987;SDS011;3534;49.960;8.018;2024-01-15T08:37:29;19.17;;;10.20;;
6987;SDS011;3534;49.960;8.018;2024-01-15T08:39:55;21.00;;;9.23;;
6987;SDS011;3534;49.960;8.018;2024-01-15T08:42:23;18.30;;;9.43;;
6987;SDS011;3534;49.960;8.018;2024-01-15T08:44:50;17.60;;;8.53;;
6987;SDS011;3534;49.960;8.018;2024-01-15T08:47:17;16.83;;;9.10;;
6987;SDS011;3534;49.960;8.018;2024-01-15T08:49:43;23.17;;;9.50;;
6987;SDS011;3534;49.960;8.018;2024-01-15T08:52:11;19.10;;;9.40;;
6987;SDS011;3534;49.960;8.018;2024-01-15T08:54:38;22.17;;;10.07;;
6987;SDS011;3534;49.960;8.018;2024-01-15T08:57:05;22.17;;;9.70;;
6987;SDS011;3534;49.960;8.018;2024-01-15T08:59:33;22.43;;;9.20;;
6987;SDS011;3534;49.960;8.018;2024-01-15T09:02:00;19.57;;;9.07;;
6987;SDS011;3534;49.960;8.018;2024-01-15T09:04:26;19.83;;;9.70;;
6987;SDS011;3534;49.960;8.018;2024-01-15T09:06:53;22.30;;;9.00;;
6987;SDS011;3534;49.960;8.018;2024-01-15T09:09:20;18.17;;;8.70;;
6987;SDS011;3534;49.960;8.018;2024-01-15T09:11:47;23.73;;;9.97;;
6987;SDS011;3534;49.960;8.018;2024-01-15T09:14:14;20.63;;;9.37;;
6987;SDS011;3534;49.960;8.018;2024-01-15T09:16:42;25.30;;;11.10;;
6987;SDS011;3534;49.960;8.018;2024-01-15T09:19:08;21.83;;;11.90;;
6987;SDS011;3534;49.960;8.018;2024-01-15T09:21:35;18.10;;;9.20;;
6987;SDS011;3534;49.960;8.018;2024-01-15T09:24:04;18.00;;;9.07;;
6987;SDS011;3534;49.960;8.018;2024-01-15T09:26:31;20.07;;;10.03;;
6987;SDS011;3534;49.960;8.018;2024-01-15T09:28:57;19.07;;;9.40;;
6987;SDS011;3534;49.960;8.018;2024-01-15T09:31:24;18.17;;;9.77;;
6987;SDS011;3534;49.960;8.018;2024-01-15T09:33:52;21.87;;;12.43;;
6987;SDS011;3534;49.960;8.018;2024-01-15T09:36:21;17.77;;;8.30;;
6987;SDS011;3534;49.960;8.018;2024-01-15T09:38:47;16.57;;;7.60;;
6987;SDS011;3534;49.960;8.018;2024-01-15T09:41:14;16.73;;;8.90;;
6987;SDS011;3534;49.960;8.018;2024-01-15T09:43:41;19.60;;;9.43;;
6987;SDS011;3534;49.960;8.018;2024-01-15T09:46:08;19.27;;;9.40;;
6987;SDS011;3534;49.960;8.018;2024-01-15T09:48:36;21.50;;;9.33;;
6987;SDS011;3534;49.960;8.018;2024-01-15T09:51:05;18.40;;;9.67;;
6987;SDS011;3534;49.960;8.018;2024-01-15T09:53:32;21.00;;;10.60;;
6987;SDS011;3534;49.960;8.018;2024-01-15T09:56:00;18.43;;;10.40;;
6987;SDS011;3534;49.960;8.018;2024-01-15T09:58:26;16.50;;;9.33;;
6987;SDS011;3534;49.960;8.018;2024-01-15T10:00:54;19.20;;;9.80;;
6987;SDS011;3534;49.960;8.018;2024-01-15T10:03:22;18.63;;;8.70;;
6987;SDS011;3534;49.960;8.018;2024-01-15T10:05:48;19.83;;;8.00;;
6987;SDS011;3534;49.960;8.018;2024-01-15T10:08:17;16.23;;;9.10;;
6987;SDS011;3534;49.960;8.018;2024-01-15T10:10:44;26.37;;;11.43;;
6987;SDS011;3534;49.960;8.018;2024-01-15T10:13:11;21.33;;;9.50;;
6987;SDS011;3534;49.960;8.018;2024-01-15T10:15:39;19.00;;;9.50;;
6987;SDS011;3534;49.960;8.018;2024-01-15T10:18:07;20.13;;;8.80;;
6987;SDS011;3534;49.960;8.018;2024-01-15T10:20:35;20.53;;;9.10;;
6987;SDS011;3534;49.960;8.018;2024-01-15T10:23:02;22.50;;;10.40;;
6987;SDS011;3534;49.960;8.018;2024-01-15T10:25:31;13.37;;;7.37;;
6987;SDS011;3534;49.960;8.018;2024-01-15T10:28:01;15.00;;;8.37;;
6987;SDS011;3534;49.960;8.018;2024-01-15T10:30:28;13.97;;;8.37;;
6987;SDS011;3534;49.960;8.018;2024-01-15T10:32:59;16.10;;;8.17;;
6987;SDS011;3534;49.960;8.018;2024-01-15T10:35:27;20.00;;;8.60;;
6987;SDS011;3534;49.960;8.018;2024-01-15T10:37:55;20.73;;;9.47;;
6987;SDS011;3534;49.960;8.018;2024-01-15T10:40:21;14.57;;;8.50;;
6987;SDS011;3534;49.960;8.018;2024-01-15T10:42:56;20.40;;;10.30;;
6987;SDS011;3534;49.960;8.018;2024-01-15T10:45:23;19.23;;;10.00;;
6987;SDS011;3534;49.960;8.018;2024-01-15T10:47:50;14.90;;;8.20;;
6987;SDS011;3534;49.960;8.018;2024-01-15T10:50:17;18.13;;;9.40;;
6987;SDS011;3534;49.960;8.018;2024-01-15T10:52:44;17.30;;;9.37;;
6987;SDS011;3534;49.960;8.018;2024-01-15T10:55:11;16.90;;;8.40;;
6987;SDS011;3534;49.960;8.018;2024-01-15T10:57:38;14.50;;;8.20;;
6987;SDS011;3534;49.960;8.018;2024-01-15T11:00:06;13.30;;;7.47;;
6987;SDS011;3534;49.960;8.018;2024-01-15T11:02:37;12.20;;;7.70;;
6987;SDS011;3534;49.960;8.018;2024-01-15T11:05:05;17.30;;;7.17;;
6987;SDS011;3534;49.960;8.018;2024-01-15T11:07:31;18.13;;;9.07;;
6987;SDS011;3534;49.960;8.018;2024-01-15T11:09:58;13.60;;;6.93;;
6987;SDS011;3534;49.960;8.018;2024-01-15T11:12:25;15.87;;;7.30;;
6987;SDS011;3534;49.960;8.018;2024-01-15T11:15:00;13.30;;;7.53;;
6987;SDS011;3534;49.960;8.018;2024-01-15T11:17:31;11.63;;;7.20;;
6987;SDS011;3534;49.960;8.018;2024-01-15T11:20:28;14.70;;;8.10;;
6987;SDS011;3534;49.960;8.018;2024-01-15T11:22:56;16.50;;;7.90;;
6987;SDS011;3534;49.960;8.018;2024-01-15T11:25:24;14.43;;;8.13;;
6987;SDS011;3534;49.960;8.018;2024-01-15T11:28:00;14.43;;;7.37;;
6987;SDS011;3534;49.960;8.018;2024-01-15T11:30:26;14.70;;;6.63;;
6987;SDS011;3534;49.960;8.018;2024-01-15T11:32:54;15.73;;;8.30;;
6987;SDS011;3534;49.960;8.018;2024-01-15T11:35:21;10.03;;;6.30;;
6987;SDS011;3534;49.960;8.018;2024-01-15T11:37:56;13.53;;;7.70;;
6987;SDS011;3534;49.960;8.018;2024-01-15T11:40:36;17.13;;;8.00;;
6987;SDS011;3534;49.960;8.018;2024-01-15T11:43:04;13.53;;;6.90;;
6987;SDS011;3534;49.960;8.018;2024-01-15T11:45:31;14.10;;;7.37;;
6987;SDS011;3534;49.960;8.018;2024-01-15T11:48:10;11.63;;;7.27;;
6987;SDS011;3534;49.960;8.018;2024-01-15T11:50:39;15.43;;;8.30;;
6987;SDS011;3534;49.960;8.018;2024-01-15T11:53:09;14.17;;;7.60;;
6987;SDS011;3534;49.960;8.018;2024-01-15T11:55:42;11.23;;;7.50;;
6987;SDS011;3534;49.960;8.018;2024-01-15T11:58:10;13.33;;;7.47;;
6987;SDS011;3534;49.960;8.018;2024-01-15T12:00:40;15.70;;;8.00;;
6987;SDS011;3534;49.960;8.018;2024-01-15T12:03:10;15.97;;;7.47;;
6987;SDS011;3534;49.960;8.018;2024-01-15T12:05:37;15.80;;;7.97;;
6987;SDS011;3534;49.960;8.018;2024-01-15T12:08:04;12.27;;;6.20;;
6987;SDS011;3534;49.960;8.018;2024-01-15T12:10:35;12.50;;;6.80;;
6987;SDS011;3534;49.960;8.018;2024-01-15T12:13:04;13.07;;;6.80;;
6987;SDS011;3534;49.960;8.018;2024-01-15T12:15:31;14.47;;;6.80;;
6987;SDS011;3534;49.960;8.018;2024-01-15T12:17:59;11.03;;;6.33;;
6987;SDS011;3534;49.960;8.018;2024-01-15T12:20:28;13.43;;;6.97;;
6987;SDS011;3534;49.960;8.018;2024-01-15T12:22:56;17.30;;;7.27;;
6987;SDS011;3534;49.960;8.018;2024-01-15T12:25:23;12.50;;;7.40;;
6987;SDS011;3534;49.960;8.018;2024-01-15T12:27:52;12.77;;;6.57;;
6987;SDS011;3534;49.960;8.018;2024-01-15T12:30:19;13.60;;;6.87;;
6987;SDS011;3534;49.960;8.018;2024-01-15T12:32:46;14.00;;;6.80;;
6987;SDS011;3534;49.960;8.018;2024-01-15T12:35:13;11.67;;;6.33;;
6987;SDS011;3534;49.960;8.018;2024-01-15T12:37:42;12.03;;;6.70;;
6987;SDS011;3534;49.960;8.018;2024-01-15T12:40:11;11.27;;;6.70;;
6987;SDS011;3534;49.960;8.018;2024-01-15T12:42:39;13.67;;;7.60;;
6987;SDS011;3534;49.960;8.018;2024-01-15T12:45:06;14.33;;;6.27;;
6987;SDS011;3534;49.960;8.018;2024-01-15T12:47:34;13.93;;;6.07;;
6987;SDS011;3534;49.960;8.018;2024-01-15T12:50:02;20.60;;;7.63;;
6987;SDS011;3534;49.960;8.018;2024-01-15T12:52:33;13.73;;;8.10;;
6987;SDS011;3534;49.960;8.018;2024-01-15T12:55:01;13.07;;;5.37;;
6987;SDS011;3534;49.960;8.018;2024-01-15T12:57:27;8.90;;;5.90;;
6987;SDS011;3534;49.960;8.018;2024-01-15T12:59:54;11.27;;;5.13;;
6987;SDS011;3534;49.960;8.018;2024-01-15T13:02:21;10.80;;;6.40;;
6987;SDS011;3534;49.960;8.018;2024-01-15T13:04:48;8.70;;;5.63;;
6987;SDS011;3534;49.960;8.018;2024-01-15T13:07:15;9.53;;;5.60;;
6987;SDS011;3534;49.960;8.018;2024-01-15T13:09:42;9.47;;;5.73;;
6987;SDS011;3534;49.960;8.018;2024-01-15T13:12:10;7.63;;;4.77;;
6987;SDS011;3534;49.960;8.018;2024-01-15T13:14:36;9.10;;;5.50;;
6987;SDS011;3534;49.960;8.018;2024-01-15T13:17:03;10.93;;;5.47;;
6987;SDS011;3534;49.960;8.018;2024-01-15T13:19:31;9.50;;;5.90;;
6987;SDS011;3534;49.960;8.018;2024-01-15T13:21:59;11.53;;;5.63;;
6987;SDS011;3534;49.960;8.018;2024-01-15T13:24:26;11.50;;;5.53;;
6987;SDS011;3534;49.960;8.018;2024-01-15T13:26:52;11.83;;;6.07;;
6987;SDS011;3534;49.960;8.018;2024-01-15T13:29:21;8.07;;;5.20;;
6987;SDS011;3534;49.960;8.018;2024-01-15T13:31:48;8.80;;;4.50;;
6987;SDS011;3534;49.960;8.018;2024-01-15T13:34:14;8.97;;;5.23;;
6987;SDS011;3534;49.960;8.018;2024-01-15T13:36:41;8.77;;;4.83;;
6987;SDS011;3534;49.960;8.018;2024-01-15T13:39:08;9.27;;;4.17;;
6987;SDS011;3534;49.960;8.018;2024-01-15T13:41:35;10.30;;;6.23;;
6987;SDS011;3534;49.960;8.018;2024-01-15T13:44:02;12.43;;;5.50;;
6987;SDS011;3534;49.960;8.018;2024-01-15T13:46:30;8.27;;;4.87;;
6987;SDS011;3534;49.960;8.018;2024-01-15T13:48:56;10.83;;;5.00;;
6987;SDS011;3534;49.960;8.018;2024-01-15T13:51:23;9.53;;;5.43;;
6987;SDS011;3534;49.960;8.018;2024-01-15T13:53:50;15.93;;;4.60;;
6987;SDS011;3534;49.960;8.018;2024-01-15T13:56:17;8.60;;;4.33;;
6987;SDS011;3534;49.960;8.018;2024-01-15T13:58:44;6.87;;;4.30;;
6987;SDS011;3534;49.960;8.018;2024-01-15T14:01:12;7.47;;;4.60;;
6987;SDS011;3534;49.960;8.018;2024-01-15T14:03:41;14.43;;;4.97;;
6987;SDS011;3534;49.960;8.018;2024-01-15T14:06:08;9.13;;;4.57;;
6987;SDS011;3534;49.960;8.018;2024-01-15T14:08:37;11.87;;;4.73;;
6987;SDS011;3534;49.960;8.018;2024-01-15T14:11:04;9.30;;;5.20;;
6987;SDS011;3534;49.960;8.018;2024-01-15T14:13:31;14.10;;;4.93;;
6987;SDS011;3534;49.960;8.018;2024-01-15T14:15:58;10.23;;;4.87;;
6987;SDS011;3534;49.960;8.018;2024-01-15T14:18:25;10.37;;;5.20;;
6987;SDS011;3534;49.960;8.018;2024-01-15T14:20:54;7.60;;;5.20;;
6987;SDS011;3534;49.960;8.018;2024-01-15T14:23:20;9.90;;;5.17;;
6987;SDS011;3534;49.960;8.018;2024-01-15T14:25:48;9.10;;;4.53;;
6987;SDS011;3534;49.960;8.018;2024-01-15T14:28:14;8.67;;;5.03;;
6987;SDS011;3534;49.960;8.018;2024-01-15T14:30:41;11.33;;;4.40;;
6987;SDS011;3534;49.960;8.018;2024-01-15T14:33:08;7.67;;;5.33;;
6987;SDS011;3534;49.960;8.018;2024-01-15T14:35:34;6.60;;;4.43;;
6987;SDS011;3534;49.960;8.018;2024-01-15T14:38:02;8.33;;;4.10;;
6987;SDS011;3534;49.960;8.018;2024-01-15T14:40:29;8.63;;;4.37;;
6987;SDS011;3534;49.960;8.018;2024-01-15T14:42:56;6.90;;;3.40;;
6987;SDS011;3534;49.960;8.018;2024-01-15T14:45:22;8.03;;;4.00;;
6987;SDS011;3534;49.960;8.018;2024-01-15T14:47:49;10.80;;;4.30;;
6987;SDS011;3534;49.960;8.018;2024-01-15T14:50:15;7.03;;;3.00;;
6987;SDS011;3534;49.960;8.018;2024-01-15T14:52:42;10.30;;;3.90;;
6987;SDS011;3534;49.960;8.018;2024-01-15T14:55:11;9.40;;;4.73;;
6987;SDS011;3534;49.960;8.018;2024-01-15T14:57:37;3.90;;;3.10;;
6987;SDS011;3534;49.960;8.018;2024-01-15T15:00:05;9.03;;;3.70;;